createdAt,value
2019-05-26T00:02:19.719Z,99.90
2019-05-26T00:04:48.167Z,99.90
2019-05-26T00:07:29.746Z,99.90
2019-05-26T00:09:46.884Z,99.90
2019-05-26T00:12:16.106Z,99.90
2019-05-26T00:14:44.570Z,99.90
2019-05-26T00:17:13.154Z,99.90
2019-05-26T00:19:41.658Z,99.90
2019-05-26T00:22:10.095Z,99.90
2019-05-26T00:24:38.576Z,99.90
2019-05-26T00:27:07.010Z,99.90
2019-05-26T00:29:35.638Z,99.90
2019-05-26T00:32:04.883Z,99.90
2019-05-26T00:34:33.363Z,99.90
2019-05-26T00:37:02.106Z,99.90
2019-05-26T00:39:30.633Z,99.90
2019-05-26T00:41:59.099Z,99.90
2019-05-26T00:44:27.575Z,99.90
2019-05-26T00:46:56.136Z,99.90
2019-05-26T00:49:24.711Z,99.90
2019-05-26T00:51:53.243Z,99.90
2019-05-26T00:54:22.001Z,99.90
2019-05-26T00:56:50.471Z,99.90
2019-05-26T00:59:19.059Z,99.90
2019-05-26T01:01:47.603Z,99.90
2019-05-26T01:04:16.110Z,99.90
2019-05-26T01:06:44.551Z,99.90
2019-05-26T01:09:13.122Z,99.90
2019-05-26T01:11:41.543Z,99.90
2019-05-26T01:14:10.020Z,99.90
2019-05-26T01:16:38.458Z,99.90
2019-05-26T01:19:07.026Z,99.90
2019-05-26T01:21:35.543Z,99.90
2019-05-26T01:24:04.112Z,99.90
2019-05-26T01:26:32.663Z,99.90
2019-05-26T01:29:01.325Z,99.90
2019-05-26T01:31:29.756Z,99.90
2019-05-26T01:33:58.233Z,99.90
2019-05-26T01:36:26.817Z,99.90
2019-05-26T01:38:55.517Z,99.90
2019-05-26T01:41:23.962Z,99.90
2019-05-26T01:43:52.405Z,99.90
2019-05-26T01:46:20.862Z,99.90
2019-05-26T01:48:49.331Z,99.90
2019-05-26T01:51:17.890Z,99.90
2019-05-26T01:53:46.378Z,99.90
2019-05-26T01:56:14.828Z,99.90
2019-05-26T01:58:43.246Z,99.90
2019-05-26T02:01:11.863Z,99.90
2019-05-26T02:03:40.335Z,99.90
2019-05-26T02:06:08.903Z,99.90
2019-05-26T02:08:39.668Z,99.90
2019-05-26T02:11:07.638Z,99.90
2019-05-26T02:13:36.087Z,99.90
2019-05-26T02:16:04.902Z,99.90
2019-05-26T02:18:33.311Z,99.90
2019-05-26T02:21:01.742Z,99.90
2019-05-26T02:23:30.158Z,99.90
2019-05-26T02:25:58.602Z,99.90
2019-05-26T02:28:27.102Z,99.90
2019-05-26T02:30:55.590Z,99.90
2019-05-26T02:33:23.992Z,99.90
2019-05-26T02:35:52.429Z,99.90
2019-05-26T02:38:25.675Z,99.90
2019-05-26T02:40:51.259Z,99.90
2019-05-26T02:43:19.779Z,99.90
2019-05-26T02:45:48.356Z,99.90
2019-05-26T02:48:16.771Z,99.90
2019-05-26T02:50:45.209Z,99.90
2019-05-26T02:53:13.772Z,99.90
2019-05-26T02:55:42.215Z,99.90
2019-05-26T02:58:10.653Z,99.90
2019-05-26T03:00:46.362Z,99.90
2019-05-26T03:03:16.112Z,99.90
2019-05-26T03:05:45.901Z,99.90
2019-05-26T03:08:15.716Z,99.90
2019-05-26T03:10:44.263Z,99.90
2019-05-26T03:13:16.846Z,99.90
2019-05-26T03:15:46.294Z,99.90
2019-05-26T03:18:15.139Z,99.90
2019-05-26T03:20:43.818Z,99.90
2019-05-26T03:23:12.301Z,99.90
2019-05-26T03:25:40.811Z,99.90
2019-05-26T03:28:09.494Z,99.90
2019-05-26T03:30:39.146Z,99.90
2019-05-26T03:33:07.744Z,99.90
2019-05-26T03:35:36.248Z,99.90
2019-05-26T03:38:05.037Z,99.90
2019-05-26T03:40:33.491Z,99.90
2019-05-26T03:43:01.979Z,99.90
2019-05-26T03:45:42.591Z,99.90
2019-05-26T03:48:11.166Z,99.90
2019-05-26T03:50:39.611Z,99.90
2019-05-26T03:53:08.108Z,99.90
2019-05-26T03:55:36.557Z,99.90
2019-05-26T03:58:05.021Z,99.90
2019-05-26T04:00:33.538Z,99.90
2019-05-26T04:03:02.059Z,99.90
2019-05-26T04:05:30.566Z,99.90
2019-05-26T04:08:04.027Z,99.90
2019-05-26T04:10:29.158Z,99.90
2019-05-26T04:12:57.791Z,99.90
2019-05-26T04:15:26.260Z,99.90
2019-05-26T04:17:54.717Z,99.90
2019-05-26T04:20:24.879Z,99.90
2019-05-26T04:22:53.363Z,99.90
2019-05-26T04:25:21.866Z,99.90
2019-05-26T04:27:50.340Z,99.90
2019-05-26T04:30:18.925Z,99.90
2019-05-26T04:32:47.510Z,99.90
2019-05-26T04:35:16.059Z,99.90
2019-05-26T04:37:44.564Z,99.90
2019-05-26T04:40:26.290Z,99.90
2019-05-26T04:42:43.214Z,99.90
2019-05-26T04:45:11.921Z,99.90
2019-05-26T04:47:40.422Z,99.90
2019-05-26T04:50:09.098Z,99.90
2019-05-26T04:52:37.589Z,99.90
2019-05-26T04:55:07.167Z,99.90
2019-05-26T04:57:35.590Z,99.90
2019-05-26T05:00:06.018Z,99.90
2019-05-26T05:02:34.465Z,99.90
2019-05-26T05:05:03.567Z,99.90
2019-05-26T05:07:32.011Z,99.90
2019-05-26T05:10:00.583Z,99.90
2019-05-26T05:12:29.012Z,99.90
2019-05-26T05:14:57.470Z,99.90
2019-05-26T05:17:25.911Z,99.90
2019-05-26T05:19:54.399Z,99.90
2019-05-26T05:22:22.890Z,99.90
2019-05-26T05:24:51.351Z,99.90
2019-05-26T05:27:19.770Z,99.90
2019-05-26T05:29:48.177Z,99.90
2019-05-26T05:32:16.607Z,99.90
2019-05-26T05:34:45.025Z,99.90
2019-05-26T05:37:13.558Z,99.90
2019-05-26T05:39:42.079Z,99.90
2019-05-26T05:42:10.655Z,99.90
2019-05-26T05:44:39.092Z,99.90
2019-05-26T05:47:07.606Z,99.90
2019-05-26T05:49:36.042Z,99.90
2019-05-26T05:52:04.545Z,99.90
2019-05-26T05:54:32.990Z,99.90
2019-05-26T05:57:01.462Z,99.90
2019-05-26T05:59:29.903Z,99.90
2019-05-26T06:01:58.438Z,99.90
2019-05-26T06:04:26.958Z,99.90
2019-05-26T06:06:55.401Z,99.90
2019-05-26T06:09:23.938Z,99.90
2019-05-26T06:11:56.445Z,99.90
2019-05-26T06:14:22.645Z,99.90
2019-05-26T06:16:51.150Z,99.90
2019-05-26T06:19:19.682Z,99.90
2019-05-26T06:21:48.245Z,99.90
2019-05-26T06:24:16.813Z,99.90
2019-05-26T06:26:45.268Z,99.90
2019-05-26T06:29:13.714Z,99.90
2019-05-26T06:31:42.326Z,99.90
2019-05-26T06:34:10.987Z,99.90
2019-05-26T06:36:39.418Z,99.80
2019-05-26T06:39:08.422Z,99.10
2019-05-26T06:41:36.929Z,99.50
2019-05-26T06:44:05.553Z,98.80
2019-05-26T06:46:34.072Z,98.10
2019-05-26T06:49:02.503Z,97.50
2019-05-26T06:51:31.009Z,96.50
2019-05-26T06:53:59.506Z,95.00
2019-05-26T06:56:28.095Z,94.50
2019-05-26T06:58:56.535Z,93.70
2019-05-26T07:01:24.977Z,92.10
2019-05-26T07:03:53.407Z,93.50
2019-05-26T07:06:21.860Z,92.80
2019-05-26T07:08:50.359Z,91.60
2019-05-26T07:11:18.926Z,93.40
2019-05-26T07:13:47.355Z,92.50
2019-05-26T07:16:15.796Z,93.10
2019-05-26T07:18:44.267Z,93.00
2019-05-26T07:21:12.802Z,94.60
2019-05-26T07:23:41.234Z,94.60
2019-05-26T07:26:09.696Z,93.70
2019-05-26T07:28:38.370Z,92.00
2019-05-26T07:31:06.787Z,90.50
2019-05-26T07:33:35.443Z,91.10
2019-05-26T07:36:03.945Z,93.60
2019-05-26T07:38:32.438Z,94.80
2019-05-26T07:41:00.881Z,94.10
2019-05-26T07:43:29.375Z,93.60
2019-05-26T07:45:57.886Z,94.50
2019-05-26T07:48:26.718Z,94.80
2019-05-26T07:50:55.186Z,95.80
2019-05-26T07:53:25.722Z,95.60
2019-05-26T07:55:54.155Z,94.40
2019-05-26T07:58:22.629Z,93.00
2019-05-26T08:00:51.251Z,92.40
2019-05-26T08:03:19.766Z,91.50
2019-05-26T08:05:48.194Z,91.10
2019-05-26T08:08:16.651Z,91.00
2019-05-26T08:10:45.077Z,91.50
2019-05-26T08:13:13.552Z,92.30
2019-05-26T08:15:42.517Z,91.40
2019-05-26T08:18:11.067Z,91.90
2019-05-26T08:20:41.214Z,91.20
2019-05-26T08:23:09.686Z,89.40
2019-05-26T08:25:38.263Z,89.70
2019-05-26T08:28:06.702Z,89.10
2019-05-26T08:30:35.130Z,89.50
2019-05-26T08:33:03.662Z,86.20
2019-05-26T08:35:32.204Z,88.90
2019-05-26T08:38:00.688Z,89.20
2019-05-26T08:40:29.278Z,87.80
2019-05-26T08:42:57.740Z,86.00
2019-05-26T08:45:26.264Z,89.90
2019-05-26T08:47:54.698Z,91.50
2019-05-26T08:50:23.218Z,90.10
2019-05-26T08:52:51.640Z,89.00
2019-05-26T08:55:21.044Z,84.00
2019-05-26T08:57:50.782Z,85.20
2019-05-26T09:00:19.777Z,88.10
2019-05-26T09:02:48.253Z,89.50
2019-05-26T09:05:17.043Z,84.10
2019-05-26T09:07:45.498Z,81.10
2019-05-26T09:10:14.402Z,82.70
2019-05-26T09:12:42.946Z,83.30
2019-05-26T09:15:11.893Z,85.70
2019-05-26T09:17:40.372Z,86.40
2019-05-26T09:20:11.449Z,87.70
2019-05-26T09:22:40.107Z,90.10
2019-05-26T09:25:08.872Z,88.50
2019-05-26T09:27:37.348Z,86.90
2019-05-26T09:30:07.728Z,84.90
2019-05-26T09:32:36.553Z,82.90
2019-05-26T09:35:08.332Z,83.60
2019-05-26T09:37:36.851Z,81.20
2019-05-26T09:40:08.188Z,81.10
2019-05-26T09:42:36.712Z,80.80
2019-05-26T09:45:07.481Z,83.80
2019-05-26T09:47:35.990Z,83.20
2019-05-26T09:50:07.052Z,86.10
2019-05-26T09:52:35.589Z,88.80
2019-05-26T09:55:08.413Z,90.40
2019-05-26T09:57:36.258Z,87.00
2019-05-26T10:00:09.697Z,86.00
2019-05-26T10:02:41.631Z,85.60
2019-05-26T10:05:10.728Z,84.70
2019-05-26T10:07:39.822Z,82.20
2019-05-26T10:10:09.324Z,83.20
2019-05-26T10:12:38.168Z,83.00
2019-05-26T10:15:11.797Z,82.50
2019-05-26T10:17:42.604Z,84.00
2019-05-26T10:20:11.708Z,83.60
2019-05-26T10:22:40.338Z,81.80
2019-05-26T10:25:09.266Z,82.10
2019-05-26T10:27:38.148Z,83.10
2019-05-26T10:30:11.624Z,82.20
2019-05-26T10:32:40.578Z,79.60
2019-05-26T10:35:09.263Z,81.30
2019-05-26T10:37:40.365Z,83.70
2019-05-26T10:40:16.255Z,82.50
2019-05-26T10:42:44.918Z,83.70
2019-05-26T10:45:14.848Z,84.20
2019-05-26T10:47:43.394Z,84.00
2019-05-26T10:50:13.595Z,82.90
2019-05-26T10:52:42.258Z,84.00
2019-05-26T10:55:10.911Z,85.20
2019-05-26T10:57:39.981Z,85.60
2019-05-26T11:00:09.822Z,87.40
2019-05-26T11:02:38.537Z,86.00
2019-05-26T11:05:08.644Z,83.70
2019-05-26T11:07:37.236Z,81.20
2019-05-26T11:10:08.154Z,80.80
2019-05-26T11:12:36.914Z,78.80
2019-05-26T11:15:07.802Z,77.10
2019-05-26T11:17:36.392Z,76.20
2019-05-26T11:20:09.017Z,77.90
2019-05-26T11:22:37.690Z,78.10
2019-05-26T11:25:08.254Z,82.10
2019-05-26T11:27:38.065Z,81.10
2019-05-26T11:30:09.763Z,80.30
2019-05-26T11:32:38.285Z,81.00
2019-05-26T11:35:07.506Z,80.00
2019-05-26T11:37:36.071Z,79.00
2019-05-26T11:40:06.691Z,78.90
2019-05-26T11:42:35.218Z,78.60
2019-05-26T11:45:08.202Z,78.50
2019-05-26T11:47:36.792Z,76.00
2019-05-26T11:50:09.135Z,78.90
2019-05-26T11:52:37.903Z,79.20
2019-05-26T11:55:06.951Z,76.20
2019-05-26T11:57:36.959Z,77.30
2019-05-26T12:00:10.915Z,78.50
2019-05-26T12:02:39.828Z,78.00
2019-05-26T12:05:08.799Z,75.10
2019-05-26T12:07:37.535Z,74.80
2019-05-26T12:10:07.684Z,74.40
2019-05-26T12:12:42.827Z,72.70
2019-05-26T12:15:13.638Z,73.20
2019-05-26T12:17:42.794Z,68.10
2019-05-26T12:20:13.196Z,66.70
2019-05-26T12:22:41.678Z,62.30
2019-05-26T12:25:10.875Z,64.30
2019-05-26T12:27:43.899Z,59.50
2019-05-26T12:30:25.861Z,60.10
2019-05-26T12:32:46.088Z,58.60
2019-05-26T12:35:14.755Z,57.20
2019-05-26T12:37:43.422Z,56.70
2019-05-26T12:40:12.332Z,55.90
2019-05-26T12:42:41.155Z,55.50
2019-05-26T12:45:10.362Z,56.40
2019-05-26T12:47:52.444Z,58.70
2019-05-26T12:50:28.743Z,57.90
2019-05-26T12:52:57.210Z,59.40
2019-05-26T12:55:25.736Z,59.10
2019-05-26T12:57:56.153Z,58.00
2019-05-26T13:00:24.907Z,57.70
2019-05-26T13:02:53.611Z,57.50
2019-05-26T13:05:22.447Z,56.30
2019-05-26T13:07:51.120Z,56.10
2019-05-26T13:10:20.515Z,54.60
2019-05-26T13:12:49.147Z,55.00
2019-05-26T13:15:19.558Z,55.60
2019-05-26T13:17:48.107Z,56.10
2019-05-26T13:20:18.548Z,56.70
2019-05-26T13:22:47.737Z,58.30
2019-05-26T13:25:16.727Z,59.20
2019-05-26T13:27:45.356Z,57.90
2019-05-26T13:30:17.252Z,58.00
2019-05-26T13:32:52.239Z,58.40
2019-05-26T13:35:23.296Z,59.30
2019-05-26T13:37:52.396Z,59.00
2019-05-26T13:40:21.026Z,59.70
2019-05-26T13:42:49.863Z,60.50
2019-05-26T13:45:22.993Z,61.50
2019-05-26T13:47:52.403Z,61.10
2019-05-26T13:50:22.026Z,60.00
2019-05-26T13:52:50.541Z,59.70
2019-05-26T13:55:19.263Z,59.30
2019-05-26T13:57:49.646Z,59.90
2019-05-26T14:00:18.951Z,59.10
2019-05-26T14:02:48.288Z,60.30
2019-05-26T14:05:17.243Z,60.10
2019-05-26T14:07:45.790Z,61.20
2019-05-26T14:10:16.053Z,59.40
2019-05-26T14:13:11.712Z,58.80
2019-05-26T14:15:38.073Z,58.40
2019-05-26T14:18:02.374Z,58.60
2019-05-26T14:20:36.217Z,57.80
2019-05-26T14:23:05.765Z,56.70
2019-05-26T14:25:35.876Z,57.10
2019-05-26T14:28:05.244Z,56.50
2019-05-26T14:30:34.187Z,56.30
2019-05-26T14:33:03.081Z,55.90
2019-05-26T14:35:31.713Z,55.70
2019-05-26T14:38:00.359Z,57.00
2019-05-26T14:40:29.027Z,55.90
2019-05-26T14:42:58.211Z,56.10
2019-05-26T14:45:27.181Z,56.40
2019-05-26T14:47:55.774Z,56.70
2019-05-26T14:50:24.672Z,56.30
2019-05-26T14:52:53.161Z,57.00
2019-05-26T14:55:21.776Z,55.90
2019-05-26T14:57:53.340Z,55.50
2019-05-26T15:00:22.116Z,55.10
2019-05-26T15:02:50.639Z,54.00
2019-05-26T15:05:20.381Z,53.60
2019-05-26T15:07:48.961Z,54.00
2019-05-26T15:10:17.722Z,55.60
2019-05-26T15:12:46.264Z,55.40
2019-05-26T15:15:14.945Z,54.70
2019-05-26T15:17:43.654Z,53.90
2019-05-26T15:20:14.038Z,53.60
2019-05-26T15:22:45.954Z,53.30
2019-05-26T15:25:14.817Z,53.30
2019-05-26T15:27:46.415Z,54.30
2019-05-26T15:30:14.338Z,54.90
2019-05-26T15:32:45.868Z,55.50
2019-05-26T15:35:15.456Z,55.70
2019-05-26T15:37:44.088Z,54.20
2019-05-26T15:40:13.588Z,54.10
2019-05-26T15:42:42.082Z,54.80
2019-05-26T15:45:10.904Z,52.60
2019-05-26T15:47:39.568Z,52.80
2019-05-26T15:50:08.578Z,53.90
2019-05-26T15:52:37.626Z,54.10
2019-05-26T15:55:06.498Z,54.10
2019-05-26T15:57:35.198Z,53.90
2019-05-26T16:00:07.455Z,53.50
2019-05-26T16:02:36.165Z,54.50
2019-05-26T16:05:06.071Z,54.10
2019-05-26T16:07:34.613Z,55.40
2019-05-26T16:10:04.034Z,56.00
2019-05-26T16:12:32.652Z,56.70
2019-05-26T16:15:01.513Z,54.40
2019-05-26T16:17:30.080Z,53.90
2019-05-26T16:20:00.189Z,54.60
2019-05-26T16:22:28.654Z,54.30
2019-05-26T16:24:57.116Z,54.40
2019-05-26T16:27:25.552Z,54.70
2019-05-26T16:29:54.084Z,55.30
2019-05-26T16:32:22.839Z,55.90
2019-05-26T16:34:51.393Z,55.80
2019-05-26T16:37:19.856Z,56.80
2019-05-26T16:39:48.469Z,55.90
2019-05-26T16:42:17.020Z,55.30
2019-05-26T16:44:45.595Z,55.50
2019-05-26T16:47:14.117Z,54.50
2019-05-26T16:49:42.755Z,54.90
2019-05-26T16:52:11.371Z,55.80
2019-05-26T16:54:39.953Z,56.40
2019-05-26T16:57:08.697Z,56.00
2019-05-26T16:59:37.123Z,55.80
2019-05-26T17:02:05.797Z,56.50
2019-05-26T17:04:34.304Z,56.80
2019-05-26T17:07:02.871Z,56.80
2019-05-26T17:09:31.384Z,57.50
2019-05-26T17:11:59.923Z,58.10
2019-05-26T17:14:28.498Z,56.80
2019-05-26T17:17:13.591Z,56.10
2019-05-26T17:19:27.259Z,57.10
2019-05-26T17:21:56.707Z,57.10
2019-05-26T17:24:25.596Z,58.00
2019-05-26T17:26:54.196Z,58.40
2019-05-26T17:29:22.667Z,58.70
2019-05-26T17:31:51.190Z,59.00
2019-05-26T17:34:19.609Z,59.20
2019-05-26T17:36:48.146Z,59.00
2019-05-26T17:39:18.430Z,59.10
2019-05-26T17:41:47.033Z,59.90
2019-05-26T17:44:15.493Z,60.00
2019-05-26T17:46:44.060Z,60.40
2019-05-26T17:49:12.537Z,60.70
2019-05-26T17:51:40.979Z,61.10
2019-05-26T17:54:09.698Z,62.10
2019-05-26T17:56:38.214Z,63.20
2019-05-26T17:59:06.991Z,63.80
2019-05-26T18:01:35.472Z,63.50
2019-05-26T18:04:04.415Z,63.70
2019-05-26T18:06:32.967Z,64.10
2019-05-26T18:09:01.530Z,65.00
2019-05-26T18:11:30.011Z,65.60
2019-05-26T18:13:58.551Z,66.00
2019-05-26T18:16:27.076Z,66.50
2019-05-26T18:18:55.594Z,67.10
2019-05-26T18:21:24.229Z,68.70
2019-05-26T18:23:52.712Z,69.00
2019-05-26T18:26:21.257Z,69.80
2019-05-26T18:28:51.252Z,70.10
2019-05-26T18:31:19.709Z,70.90
2019-05-26T18:33:48.176Z,72.90
2019-05-26T18:36:16.773Z,73.30
2019-05-26T18:38:45.324Z,76.00
2019-05-26T18:41:13.825Z,76.20
2019-05-26T18:43:42.276Z,77.80
2019-05-26T18:46:12.784Z,81.00
2019-05-26T18:48:41.269Z,82.90
2019-05-26T18:51:09.876Z,88.60
2019-05-26T18:53:38.390Z,90.50
2019-05-26T18:56:06.896Z,91.20
2019-05-26T18:58:35.435Z,93.40
2019-05-26T19:01:04.398Z,93.60
2019-05-26T19:03:32.965Z,94.30
2019-05-26T19:06:01.606Z,94.30
2019-05-26T19:08:32.741Z,95.40
2019-05-26T19:11:01.505Z,95.70
2019-05-26T19:13:30.005Z,95.50
2019-05-26T19:15:58.749Z,96.30
2019-05-26T19:18:27.402Z,97.20
2019-05-26T19:20:56.094Z,97.00
2019-05-26T19:23:24.560Z,96.00
2019-05-26T19:25:53.155Z,96.00
2019-05-26T19:28:21.836Z,96.90
2019-05-26T19:30:50.424Z,97.60
2019-05-26T19:33:18.903Z,97.00
2019-05-26T19:35:47.893Z,98.40
2019-05-26T19:38:17.889Z,98.50
2019-05-26T19:40:46.443Z,98.70
2019-05-26T19:43:17.396Z,98.80
2019-05-26T19:45:45.496Z,99.00
2019-05-26T19:48:14.208Z,98.90
2019-05-26T19:50:42.723Z,99.10
2019-05-26T19:53:11.444Z,98.50
2019-05-26T19:55:41.982Z,98.90
2019-05-26T19:58:10.669Z,99.40
2019-05-26T20:00:39.675Z,99.50
2019-05-26T20:03:08.279Z,99.40
2019-05-26T20:05:37.013Z,99.40
2019-05-26T20:08:05.602Z,99.70
2019-05-26T20:10:34.374Z,99.80
2019-05-26T20:13:04.454Z,99.40
2019-05-26T20:15:32.899Z,98.80
2019-05-26T20:18:01.745Z,98.60
2019-05-26T20:20:30.270Z,97.00
2019-05-26T20:22:58.846Z,97.00
2019-05-26T20:25:27.383Z,96.50
2019-05-26T20:27:55.884Z,96.50
2019-05-26T20:30:24.525Z,95.20
2019-05-26T20:32:52.942Z,95.70
2019-05-26T20:35:21.496Z,96.30
2019-05-26T20:37:49.931Z,95.50
2019-05-26T20:40:18.645Z,96.10
2019-05-26T20:42:47.150Z,95.70
2019-05-26T20:45:15.860Z,94.80
2019-05-26T20:47:44.313Z,94.60
2019-05-26T20:50:28.033Z,94.60
2019-05-26T20:52:44.808Z,94.10
2019-05-26T20:55:14.764Z,95.00
2019-05-26T20:57:43.258Z,95.50
2019-05-26T21:00:13.544Z,95.00
2019-05-26T21:02:42.755Z,96.70
2019-05-26T21:05:11.746Z,97.10
2019-05-26T21:07:40.586Z,97.30
2019-05-26T21:10:09.285Z,96.60
2019-05-26T21:12:37.870Z,98.00
2019-05-26T21:15:08.022Z,98.10
2019-05-26T21:17:36.566Z,97.40
2019-05-26T21:20:09.648Z,97.80
2019-05-26T21:22:37.684Z,98.70
2019-05-26T21:25:06.978Z,98.80
2019-05-26T21:27:35.518Z,98.00
2019-05-26T21:30:06.441Z,97.60
2019-05-26T21:32:35.024Z,97.40
2019-05-26T21:35:05.570Z,96.20
2019-05-26T21:37:34.116Z,96.10
2019-05-26T21:40:02.912Z,95.80
2019-05-26T21:42:31.419Z,95.70
2019-05-26T21:44:59.919Z,96.30
2019-05-26T21:47:28.554Z,97.40
2019-05-26T21:49:57.037Z,96.80
2019-05-26T21:52:25.529Z,97.20
2019-05-26T21:54:54.027Z,97.30
2019-05-26T21:57:22.489Z,97.50
2019-05-26T21:59:50.922Z,97.30
2019-05-26T22:02:19.466Z,97.30
2019-05-26T22:04:48.063Z,97.10
2019-05-26T22:07:16.650Z,97.60
2019-05-26T22:09:45.434Z,97.80
2019-05-26T22:12:14.226Z,96.90
2019-05-26T22:14:43.200Z,97.00
2019-05-26T22:17:11.646Z,97.60
2019-05-26T22:19:40.144Z,97.90
2019-05-26T22:22:08.766Z,97.50
2019-05-26T22:24:37.255Z,97.90
2019-05-26T22:27:05.948Z,97.30
2019-05-26T22:29:34.375Z,97.00
2019-05-26T22:32:02.818Z,96.50
2019-05-26T22:34:31.259Z,96.90
2019-05-26T22:36:59.802Z,97.50
2019-05-26T22:39:28.533Z,97.30
2019-05-26T22:41:57.091Z,97.40
2019-05-26T22:44:25.564Z,97.10
2019-05-26T22:46:54.071Z,96.80
2019-05-26T22:49:22.532Z,96.90
2019-05-26T22:51:51.051Z,97.70
2019-05-26T22:54:19.582Z,97.40
2019-05-26T22:56:48.132Z,97.20
2019-05-26T22:59:16.977Z,96.90
2019-05-26T23:01:50.740Z,97.30
2019-05-26T23:04:19.215Z,96.80
2019-05-26T23:06:48.001Z,96.50
2019-05-26T23:09:16.583Z,96.50
2019-05-26T23:11:45.042Z,96.90
2019-05-26T23:14:13.442Z,96.90
2019-05-26T23:16:41.880Z,96.00
2019-05-26T23:19:18.743Z,95.50
2019-05-26T23:21:40.477Z,95.30
2019-05-26T23:24:08.952Z,95.30
2019-05-26T23:26:37.503Z,95.70
2019-05-26T23:29:06.043Z,95.50
2019-05-26T23:31:34.471Z,95.30
2019-05-26T23:34:02.885Z,95.00
2019-05-26T23:36:31.328Z,95.70
2019-05-26T23:38:59.764Z,96.00
2019-05-26T23:41:28.321Z,95.90
2019-05-26T23:43:56.823Z,96.10
2019-05-26T23:46:25.321Z,95.60
2019-05-26T23:48:53.825Z,96.40
2019-05-26T23:51:22.267Z,96.40
2019-05-26T23:53:50.754Z,95.90
2019-05-26T23:56:19.210Z,95.70
2019-05-26T23:58:47.621Z,95.40
